Time;durP1;ratioP1;P1;durP2;ratioP2;P2;SDS_P1;SDS_P2;PMS_P1;PMS_P2;Temp;Humidity;BMP_temperature;BMP_pressure;BME280_temperature;BME280_humidity;BME280_pressure;Samples;Min_cycle;Max_cycle;Signal;HPM_P1;HPM_P2
2022/10/21 04:02:16;;;;;;;7.70;4.95;;;9.70;99.90;;;;;;6234280;22;20641;-70
2022/10/21 04:04:42;;;;;;;7.00;4.50;;;9.70;99.90;;;;;;6241948;23;20187;-71
2022/10/21 04:07:10;;;;;;;6.93;4.38;;;9.70;99.90;;;;;;6241543;23;20188;-70
2022/10/21 04:09:36;;;;;;;11.55;7.07;;;9.60;99.90;;;;;;6241705;23;20202;-71
2022/10/21 04:12:03;;;;;;;13.85;4.93;;;9.60;99.90;;;;;;6241802;22;20233;-71
2022/10/21 04:14:30;;;;;;;8.65;6.80;;;9.60;99.90;;;;;;6241824;22;20172;-70
2022/10/21 04:16:57;;;;;;;6.63;5.13;;;9.60;99.90;;;;;;6242445;23;20498;-69
2022/10/21 04:19:25;;;;;;;12.23;4.57;;;9.60;99.90;;;;;;6241102;23;20191;-69
2022/10/21 04:21:51;;;;;;;4.85;3.67;;;9.60;99.90;;;;;;6241375;23;20193;-69
2022/10/21 04:24:18;;;;;;;7.15;5.65;;;9.60;99.90;;;;;;6239234;22;20187;-69
2022/10/21 04:26:45;;;;;;;8.13;5.63;;;9.60;99.90;;;;;;6240630;23;20627;-69
2022/10/21 04:29:12;;;;;;;7.45;4.95;;;9.50;99.90;;;;;;6241320;23;20222;-69
2022/10/21 04:31:38;;;;;;;6.22;5.57;;;9.60;99.90;;;;;;6214502;23;20301;-69
2022/10/21 04:34:05;;;;;;;6.05;5.13;;;9.50;99.90;;;;;;6250971;23;20507;-70
2022/10/21 04:36:33;;;;;;;6.30;5.68;;;9.50;99.90;;;;;;6241575;22;20210;-69
2022/10/21 04:39:00;;;;;;;5.30;4.40;;;9.50;99.90;;;;;;6241103;23;20191;-69
2022/10/21 04:41:27;;;;;;;9.18;6.72;;;9.50;99.90;;;;;;6240202;23;20568;-69
2022/10/21 04:43:53;;;;;;;5.57;5.05;;;9.40;99.90;;;;;;6241198;23;20183;-68
2022/10/21 04:46:20;;;;;;;8.60;4.40;;;9.40;99.90;;;;;;6241236;22;20209;-69
2022/10/21 04:48:47;;;;;;;5.10;4.70;;;9.40;99.90;;;;;;6241256;23;20195;-69
2022/10/21 04:51:14;;;;;;;4.50;4.07;;;9.40;99.90;;;;;;6241796;23;20496;-69
2022/10/21 04:53:42;;;;;;;7.75;5.22;;;9.40;99.90;;;;;;6240481;23;20187;-70
2022/10/21 04:56:09;;;;;;;6.82;5.70;;;9.40;99.90;;;;;;6240467;22;20208;-70
2022/10/21 04:58:35;;;;;;;7.72;5.22;;;9.40;99.90;;;;;;6242236;23;20486;-69
2022/10/21 05:01:03;;;;;;;8.15;4.55;;;9.40;99.90;;;;;;6239695;23;20196;-70
2022/10/21 05:03:29;;;;;;;8.25;5.30;;;9.40;99.90;;;;;;6241786;23;20182;-69
2022/10/21 05:05:56;;;;;;;8.43;5.88;;;9.40;99.90;;;;;;6241153;22;20204;-69
2022/10/21 05:08:23;;;;;;;9.55;5.60;;;9.40;99.90;;;;;;6241984;23;20435;-68
2022/10/21 05:10:57;;;;;;;9.05;5.90;;;9.40;99.90;;;;;;6241208;23;20180;-69
2022/10/21 05:13:24;;;;;;;10.30;5.47;;;9.40;99.90;;;;;;6241409;23;20225;-69
2022/10/21 05:15:50;;;;;;;7.18;6.45;;;9.40;99.90;;;;;;6240916;22;20503;-69
2022/10/21 05:18:17;;;;;;;27.98;6.75;;;9.40;99.90;;;;;;6241935;23;20184;-69
2022/10/21 05:20:50;;;;;;;5.40;4.90;;;9.40;99.90;;;;;;6241470;23;20517;-69
2022/10/21 05:23:16;;;;;;;11.98;5.60;;;9.30;99.90;;;;;;6240990;23;20170;-69
2022/10/21 05:25:44;;;;;;;9.68;6.10;;;9.40;99.90;;;;;;6241068;22;20276;-69
2022/10/21 05:28:12;;;;;;;13.43;7.00;;;9.30;99.90;;;;;;6242080;23;20187;-70
2022/10/21 05:30:39;;;;;;;11.25;6.30;;;9.30;99.90;;;;;;6242082;23;20184;-70
2022/10/21 05:33:06;;;;;;;5.50;5.07;;;9.30;99.90;;;;;;6241795;23;20183;-70
2022/10/21 05:35:32;;;;;;;7.32;4.70;;;9.40;99.90;;;;;;6241882;22;20250;-70
2022/10/21 05:37:59;;;;;;;12.98;5.60;;;9.30;99.90;;;;;;6241700;23;20636;-70
2022/10/21 05:40:26;;;;;;;8.02;7.32;;;9.30;99.90;;;;;;6241942;23;20207;-70
2022/10/21 05:42:52;;;;;;;6.93;5.78;;;9.30;99.90;;;;;;6241242;23;20204;-70
2022/10/21 05:45:20;;;;;;;12.32;5.97;;;9.30;99.90;;;;;;6242603;22;20207;-70
2022/10/21 05:47:47;;;;;;;9.55;7.57;;;9.20;99.90;;;;;;6241287;23;20183;-70
2022/10/21 05:50:14;;;;;;;6.38;4.57;;;9.20;99.90;;;;;;6240367;23;20180;-70
2022/10/21 05:52:41;;;;;;;9.50;7.28;;;9.20;99.90;;;;;;6240205;23;20202;-70
2022/10/21 05:55:09;;;;;;;8.57;7.05;;;9.30;99.90;;;;;;6243361;22;20203;-70
2022/10/21 05:57:37;;;;;;;8.30;5.88;;;9.30;99.90;;;;;;6253912;23;20184;-70
2022/10/21 06:00:05;;;;;;;9.52;7.90;;;9.20;99.90;;;;;;6243860;23;20191;-70
2022/10/21 06:02:33;;;;;;;4.97;4.55;;;9.30;99.90;;;;;;6243795;23;20204;-70
2022/10/21 06:04:59;;;;;;;5.90;5.40;;;9.30;99.90;;;;;;6243333;22;20203;-68
2022/10/21 06:07:26;;;;;;;7.00;5.82;;;9.30;99.90;;;;;;6243513;23;20654;-69
2022/10/21 06:09:53;;;;;;;9.93;5.90;;;9.30;99.90;;;;;;6243866;23;20179;-70
2022/10/21 06:12:20;;;;;;;8.13;5.00;;;9.40;99.90;;;;;;6243055;23;20180;-69
2022/10/21 06:14:46;;;;;;;14.50;5.00;;;9.40;99.90;;;;;;6243547;22;20214;-69
2022/10/21 06:17:13;;;;;;;7.55;5.53;;;9.40;99.90;;;;;;6243453;23;20526;-69
2022/10/21 06:19:41;;;;;;;10.50;7.15;;;9.40;99.90;;;;;;6243483;23;20180;-69
2022/10/21 06:22:08;;;;;;;11.05;6.55;;;9.50;99.90;;;;;;6242865;23;20309;-69
2022/10/21 06:24:34;;;;;;;7.45;6.65;;;9.50;99.90;;;;;;6243134;22;20204;-70
2022/10/21 06:27:02;;;;;;;6.32;5.20;;;9.50;99.90;;;;;;6243019;23;20203;-70
2022/10/21 06:29:28;;;;;;;11.48;5.80;;;9.50;99.90;;;;;;6243190;23;20196;-70
2022/10/21 06:31:55;;;;;;;8.77;5.25;;;9.50;99.90;;;;;;6243304;23;20178;-69
2022/10/21 06:34:22;;;;;;;10.20;6.30;;;9.50;99.90;;;;;;6242561;22;20184;-70
2022/10/21 06:36:50;;;;;;;25.08;8.43;;;9.60;99.90;;;;;;6243501;23;20278;-69
2022/10/21 06:39:17;;;;;;;9.55;7.35;;;9.60;99.90;;;;;;6243624;23;20202;-70
2022/10/21 06:41:44;;;;;;;8.40;6.85;;;9.60;99.90;;;;;;6242935;23;20199;-69
2022/10/21 06:44:10;;;;;;;4.93;4.35;;;9.70;99.90;;;;;;6243281;22;20184;-69
2022/10/21 06:46:37;;;;;;;12.63;8.00;;;9.70;99.90;;;;;;6253699;23;20203;-69
2022/10/21 06:49:04;;;;;;;9.23;6.05;;;9.70;99.90;;;;;;6245769;23;20236;-69
2022/10/21 06:51:30;;;;;;;6.18;5.30;;;9.80;99.90;;;;;;6246625;23;20186;-69
2022/10/21 06:54:00;;;;;;;10.02;6.25;;;9.80;99.90;;;;;;6244402;23;20206;-70
2022/10/21 06:56:27;;;;;;;10.73;6.22;;;9.80;99.90;;;;;;6243901;22;20208;-69
2022/10/21 06:58:56;;;;;;;7.68;5.88;;;9.90;99.90;;;;;;6245188;23;20180;-70
2022/10/21 07:01:25;;;;;;;8.15;5.55;;;9.90;99.90;;;;;;6242195;23;20223;-69
2022/10/21 07:03:52;;;;;;;8.02;5.75;;;9.90;99.90;;;;;;6244317;23;20631;-70
2022/10/21 07:06:19;;;;;;;9.57;5.93;;;10.00;99.90;;;;;;6245173;22;20210;-69
2022/10/21 07:08:46;;;;;;;10.65;7.57;;;10.00;99.90;;;;;;6248069;23;20233;-69
2022/10/21 07:11:14;;;;;;;6.55;5.68;;;10.00;99.90;;;;;;6244860;23;20664;-69
2022/10/21 07:13:41;;;;;;;7.78;5.63;;;10.10;99.90;;;;;;6243498;23;20629;-69
2022/10/21 07:16:14;;;;;;;8.27;6.65;;;10.10;99.90;;;;;;6251477;22;20206;-70
2022/10/21 07:18:41;;;;;;;8.40;7.10;;;10.10;99.90;;;;;;6242101;23;20194;-70
2022/10/21 07:21:09;;;;;;;12.38;7.80;;;10.10;99.90;;;;;;6252332;23;20555;-70
2022/10/21 07:23:36;;;;;;;10.38;8.13;;;10.10;99.90;;;;;;6241752;23;20180;-70
2022/10/21 07:26:04;;;;;;;16.58;6.35;;;10.20;99.90;;;;;;6242521;22;20554;-70
2022/10/21 07:28:33;;;;;;;11.45;7.53;;;10.20;99.90;;;;;;6243544;23;20181;-69
2022/10/21 07:31:00;;;;;;;7.00;5.40;;;10.30;99.90;;;;;;6244976;23;20223;-70
2022/10/21 07:33:27;;;;;;;9.32;5.72;;;10.30;99.90;;;;;;6244532;23;20190;-70
2022/10/21 07:36:03;;;;;;;12.55;6.68;;;10.40;99.90;;;;;;6244714;22;20211;-70
2022/10/21 07:38:31;;;;;;;15.02;7.30;;;10.50;99.90;;;;;;6244904;23;20169;-70
2022/10/21 07:40:58;;;;;;;8.43;6.10;;;10.60;99.90;;;;;;6244252;23;20191;-70
2022/10/21 07:43:25;;;;;;;5.97;5.03;;;10.60;99.90;;;;;;6247068;23;20273;-71
2022/10/21 07:45:53;;;;;;;10.15;5.75;;;10.70;99.90;;;;;;6243342;22;20206;-69
2022/10/21 07:48:22;;;;;;;13.95;7.72;;;10.70;99.90;;;;;;6243606;23;20179;-70
2022/10/21 07:50:49;;;;;;;10.98;9.02;;;10.80;99.90;;;;;;6243282;23;20182;-70
2022/10/21 07:53:16;;;;;;;11.95;6.97;;;10.80;99.90;;;;;;6243561;23;20190;-70
2022/10/21 07:55:42;;;;;;;12.82;8.25;;;10.90;99.90;;;;;;6243229;22;20206;-70
2022/10/21 07:58:09;;;;;;;10.15;7.53;;;10.90;99.90;;;;;;6243283;23;20180;-73
2022/10/21 08:00:36;;;;;;;11.80;8.05;;;11.00;99.90;;;;;;6242499;23;20606;-69
2022/10/21 08:03:04;;;;;;;9.77;7.05;;;11.00;99.90;;;;;;6244553;23;20200;-69
2022/10/21 08:05:31;;;;;;;12.18;8.77;;;11.10;99.90;;;;;;6242618;22;20198;-70
2022/10/21 08:07:58;;;;;;;10.50;7.43;;;11.10;99.90;;;;;;6240666;23;20188;-70
2022/10/21 08:10:25;;;;;;;11.05;8.65;;;11.10;99.90;;;;;;6242489;23;20188;-69
2022/10/21 08:12:51;;;;;;;7.50;5.30;;;11.10;99.90;;;;;;6241632;23;20535;-69
2022/10/21 08:15:18;;;;;;;12.75;7.10;;;11.20;99.90;;;;;;6243644;22;20207;-69
2022/10/21 08:17:45;;;;;;;6.38;5.80;;;11.20;99.90;;;;;;6243811;23;20258;-71
2022/10/21 08:20:13;;;;;;;7.60;6.30;;;11.20;99.90;;;;;;6245369;23;20337;-70
2022/10/21 08:22:40;;;;;;;10.05;6.45;;;11.30;99.90;;;;;;6244740;23;20200;-71
2022/10/21 08:25:07;;;;;;;18.35;8.95;;;11.30;99.90;;;;;;6245726;22;20205;-70
2022/10/21 08:27:34;;;;;;;9.50;6.68;;;11.30;99.90;;;;;;6244649;23;20194;-70
2022/10/21 08:30:01;;;;;;;9.85;6.70;;;11.30;99.90;;;;;;6246110;23;20241;-70
2022/10/21 08:32:27;;;;;;;6.75;6.07;;;11.30;99.90;;;;;;6244802;23;20179;-70
2022/10/21 08:34:54;;;;;;;12.85;7.07;;;11.40;99.90;;;;;;6243285;22;20451;-70
2022/10/21 08:37:22;;;;;;;8.52;5.00;;;11.30;99.90;;;;;;6241528;23;20201;-69
2022/10/21 08:39:49;;;;;;;30.55;10.77;;;11.40;99.90;;;;;;6241721;23;20186;-70
2022/10/21 08:42:17;;;;;;;16.70;8.75;;;11.40;99.90;;;;;;6250474;23;20193;-69
2022/10/21 08:44:51;;;;;;;17.42;12.13;;;11.50;99.90;;;;;;6241653;22;20536;-70
2022/10/21 08:47:24;;;;;;;8.93;7.90;;;11.60;99.90;;;;;;6241725;23;20168;-70
2022/10/21 08:49:58;;;;;;;8.23;7.43;;;11.60;99.90;;;;;;6242013;23;20499;-70
2022/10/21 08:52:40;;;;;;;10.82;7.32;;;11.70;99.90;;;;;;6240134;23;20262;-69
2022/10/21 08:55:14;;;;;;;7.10;5.15;;;11.70;99.90;;;;;;6240766;22;20208;-70
2022/10/21 08:57:41;;;;;;;10.25;6.47;;;11.70;99.90;;;;;;6240105;23;20170;-70
2022/10/21 09:00:15;;;;;;;7.25;6.55;;;11.70;99.90;;;;;;6242057;23;20188;-70
2022/10/21 09:02:58;;;;;;;11.52;7.63;;;11.80;99.90;;;;;;6240120;23;20236;-70
2022/10/21 09:05:55;;;;;;;7.00;5.97;;;11.80;99.90;;;;;;6238871;22;20271;-69
2022/10/21 09:08:31;;;;;;;12.57;6.38;;;11.80;99.90;;;;;;6240198;23;20187;-68
2022/10/21 09:11:04;;;;;;;9.02;8.02;;;11.90;99.90;;;;;;6241088;23;20163;-69
2022/10/21 09:13:51;;;;;;;7.80;5.63;;;11.90;99.90;;;;;;6241343;23;20163;-69
2022/10/21 09:16:21;;;;;;;13.43;7.53;;;12.00;99.90;;;;;;6241824;22;20456;-69
2022/10/21 09:18:59;;;;;;;11.77;7.90;;;12.00;99.90;;;;;;6241454;23;20880;-69
2022/10/21 09:21:38;;;;;;;6.53;5.87;;;12.10;99.90;;;;;;6241328;23;20414;-69
2022/10/21 09:24:11;;;;;;;9.87;6.37;;;12.20;99.90;;;;;;6241265;23;20861;-70
2022/10/21 09:26:40;;;;;;;10.07;6.57;;;12.20;99.90;;;;;;6240784;23;20403;-69
2022/10/21 09:29:19;;;;;;;11.30;5.23;;;12.30;99.90;;;;;;6240358;23;20746;-71
2022/10/21 09:31:47;;;;;;;11.27;6.82;;;12.30;99.90;;;;;;6243155;23;20817;-70
2022/10/21 09:34:19;;;;;;;8.30;7.20;;;12.40;99.90;;;;;;6242841;22;20180;-69
2022/10/21 09:36:47;;;;;;;8.70;5.70;;;12.40;99.90;;;;;;6243523;23;20417;-70
2022/10/21 09:39:21;;;;;;;9.40;5.20;;;12.50;99.90;;;;;;6242994;23;20499;-70
2022/10/21 09:41:52;;;;;;;8.30;7.47;;;12.60;99.90;;;;;;6242936;23;20437;-68
2022/10/21 09:44:21;;;;;;;8.00;6.50;;;12.70;99.90;;;;;;6243025;22;20699;-69
2022/10/21 09:46:49;;;;;;;6.30;5.57;;;12.80;99.90;;;;;;6243836;23;20421;-70
2022/10/21 09:49:24;;;;;;;9.63;6.70;;;12.80;99.90;;;;;;6243284;23;20423;-68
2022/10/21 09:51:52;;;;;;;8.77;6.30;;;12.90;99.90;;;;;;6244119;23;20401;-69
2022/10/21 09:54:23;;;;;;;7.57;5.83;;;12.90;99.90;;;;;;6242686;22;20504;-68
2022/10/21 09:56:55;;;;;;;6.37;5.43;;;13.00;99.90;;;;;;6241086;23;20418;-68
2022/10/21 09:59:24;;;;;;;7.17;5.27;;;13.10;99.90;;;;;;6240661;22;20776;-69
2022/10/21 10:01:51;;;;;;;7.07;6.37;;;13.10;99.90;;;;;;6242655;23;20447;-69
2022/10/21 10:04:23;;;;;;;8.63;6.23;;;13.20;99.90;;;;;;6241601;22;20939;-69
2022/10/21 10:06:50;;;;;;;6.03;5.43;;;13.30;99.90;;;;;;6241290;23;20406;-69
2022/10/21 10:09:27;;;;;;;4.90;4.50;;;13.30;99.90;;;;;;6241559;23;20526;-69
2022/10/21 10:11:57;;;;;;;8.47;6.60;;;13.40;99.90;;;;;;6242537;23;20414;-69
2022/10/21 10:14:28;;;;;;;18.97;7.63;;;13.40;99.90;;;;;;6242473;22;20406;-69
2022/10/21 10:16:55;;;;;;;8.00;6.70;;;13.50;99.90;;;;;;6242147;23;20875;-69
2022/10/21 10:19:24;;;;;;;5.73;5.13;;;13.60;99.90;;;;;;6242567;23;20423;-69
2022/10/21 10:22:11;;;;;;;12.90;6.07;;;13.60;99.90;;;;;;6242979;23;20430;-68
2022/10/21 10:24:40;;;;;;;10.73;6.80;;;13.60;99.90;;;;;;6241740;22;20439;-68
2022/10/21 10:27:12;;;;;;;6.57;4.57;;;13.70;99.90;;;;;;6241899;23;20411;-70
2022/10/21 10:29:41;;;;;;;6.10;5.00;;;13.70;99.90;;;;;;6243090;23;20415;-69
2022/10/21 10:32:14;;;;;;;11.30;8.73;;;13.80;99.90;;;;;;6242740;23;20415;-69
2022/10/21 10:34:51;;;;;;;6.37;5.83;;;13.80;99.90;;;;;;6242572;22;20439;-68
2022/10/21 10:37:20;;;;;;;13.30;7.77;;;13.90;99.90;;;;;;6240599;23;20410;-69
2022/10/21 10:39:51;;;;;;;6.07;4.60;;;14.00;99.90;;;;;;6242164;23;20439;-68
2022/10/21 10:42:19;;;;;;;5.43;4.93;;;14.10;99.90;;;;;;6241974;23;20711;-68
2022/10/21 10:44:47;;;;;;;9.10;6.70;;;14.20;99.90;;;;;;6241223;22;20419;-69
2022/10/21 10:47:22;;;;;;;6.40;5.80;;;14.20;99.90;;;;;;6243076;23;20185;-69
2022/10/21 10:49:50;;;;;;;6.70;5.30;;;14.30;99.90;;;;;;6242256;23;20419;-65
2022/10/21 10:52:22;;;;;;;5.43;4.90;;;14.30;99.90;;;;;;6251844;23;20423;-66
2022/10/21 10:55:15;;;;;;;5.50;4.93;;;14.30;99.90;;;;;;6243747;22;20534;-70
2022/10/21 10:57:48;;;;;;;7.27;5.70;;;14.30;99.90;;;;;;6245097;23;20410;-70
2022/10/21 11:00:18;;;;;;;11.93;7.97;;;14.30;99.90;;;;;;6246765;23;20769;-69
2022/10/21 11:02:50;;;;;;;14.43;8.80;;;14.30;99.90;;;;;;6245719;23;20972;-70
2022/10/21 11:05:23;;;;;;;7.53;6.53;;;14.20;99.90;;;;;;6242528;22;20458;-69
2022/10/21 11:07:51;;;;;;;8.50;5.87;;;14.20;99.90;;;;;;6243034;23;20465;-69
2022/10/21 11:10:33;;;;;;;10.53;7.37;;;14.20;99.90;;;;;;6242879;23;20424;-69
2022/10/21 11:13:01;;;;;;;6.07;5.40;;;14.30;99.90;;;;;;6243369;23;20890;-71
2022/10/21 11:15:41;;;;;;;4.50;4.00;;;14.30;99.90;;;;;;6246736;22;20442;-71
2022/10/21 11:18:15;;;;;;;6.57;4.10;;;14.40;99.90;;;;;;6252094;23;20764;-69
2022/10/21 11:20:49;;;;;;;6.83;6.10;;;14.40;99.90;;;;;;6253576;23;20410;-69
2022/10/21 11:23:33;;;;;;;6.70;6.07;;;14.40;99.90;;;;;;6252241;23;20430;-69
2022/10/21 11:26:09;;;;;;;7.77;4.53;;;14.50;99.90;;;;;;6253198;22;20794;-70
2022/10/21 11:28:42;;;;;;;11.07;5.73;;;14.60;99.90;;;;;;6252705;23;20886;-70
2022/10/21 11:31:19;;;;;;;5.30;4.73;;;14.70;99.90;;;;;;6253119;23;20408;-69
2022/10/21 11:33:51;;;;;;;6.43;5.80;;;14.70;99.90;;;;;;6252640;23;20406;-69
2022/10/21 11:36:26;;;;;;;7.57;6.77;;;14.80;99.90;;;;;;6251955;22;20459;-69
2022/10/21 11:39:21;;;;;;;11.40;6.60;;;14.80;99.90;;;;;;6251958;23;20404;-69
2022/10/21 11:41:56;;;;;;;7.07;5.77;;;14.90;99.90;;;;;;6235950;23;20461;-69
2022/10/21 11:44:29;;;;;;;6.17;5.47;;;15.00;99.90;;;;;;6242293;22;20411;-69
2022/10/21 11:47:05;;;;;;;5.10;4.60;;;15.10;99.90;;;;;;6241259;23;20724;-69
2022/10/21 11:49:48;;;;;;;6.80;5.10;;;15.10;99.90;;;;;;6242280;23;20404;-69
2022/10/21 11:52:26;;;;;;;5.20;4.80;;;15.20;99.90;;;;;;6241818;23;20709;-68
2022/10/21 11:55:25;;;;;;;4.90;4.50;;;15.30;99.90;;;;;;6242423;22;20449;-69
2022/10/21 11:58:01;;;;;;;4.40;4.00;;;15.30;99.90;;;;;;6225216;23;20428;-69
2022/10/21 12:00:37;;;;;;;4.20;3.90;;;15.40;99.90;;;;;;6241354;23;20426;-68
2022/10/21 12:03:35;;;;;;;5.40;4.90;;;15.40;99.90;;;;;;6242346;23;20834;-69
2022/10/21 12:06:03;;;;;;;3.80;3.47;;;15.40;99.90;;;;;;6242579;22;20474;-69
2022/10/21 12:08:35;;;;;;;5.33;4.00;;;15.50;99.90;;;;;;6241950;23;20427;-68
2022/10/21 12:11:10;;;;;;;5.67;4.33;;;15.50;99.90;;;;;;6242096;23;20872;-69
2022/10/21 12:13:44;;;;;;;5.20;4.70;;;15.60;99.90;;;;;;6241531;23;20758;-68
2022/10/21 12:16:14;;;;;;;5.07;4.70;;;15.60;99.90;;;;;;6241770;22;20443;-69
2022/10/21 12:18:44;;;;;;;5.23;4.73;;;15.70;99.90;;;;;;6242052;23;20405;-69
2022/10/21 12:21:16;;;;;;;5.07;4.00;;;15.70;99.90;;;;;;6242077;23;20421;-69
2022/10/21 12:23:44;;;;;;;4.03;3.80;;;15.70;99.90;;;;;;6241044;23;20756;-70
2022/10/21 12:26:19;;;;;;;13.00;10.37;;;15.70;99.90;;;;;;6240573;22;20821;-68
2022/10/21 12:28:56;;;;;;;13.07;10.30;;;15.70;99.90;;;;;;6241000;23;21045;-69
2022/10/21 12:31:34;;;;;;;7.07;6.47;;;15.70;99.90;;;;;;6241750;23;20420;-69
2022/10/21 12:34:03;;;;;;;9.33;5.57;;;15.60;99.90;;;;;;6241644;23;20400;-69
2022/10/21 12:36:43;;;;;;;5.13;4.57;;;15.70;99.90;;;;;;6241978;22;20474;-69
2022/10/21 12:39:16;;;;;;;3.10;2.90;;;15.80;99.90;;;;;;6241270;23;20434;-69
2022/10/21 12:41:46;;;;;;;4.40;4.00;;;15.80;99.90;;;;;;6241439;23;20528;-69
2022/10/21 12:44:25;;;;;;;4.03;2.87;;;15.80;99.90;;;;;;6241136;22;20726;-68
2022/10/21 12:46:54;;;;;;;4.00;3.80;;;15.90;99.90;;;;;;6241980;23;20496;-68
2022/10/21 12:49:24;;;;;;;4.97;4.47;;;15.90;99.90;;;;;;6241606;23;20520;-68
2022/10/21 12:51:58;;;;;;;3.57;3.33;;;16.00;99.90;;;;;;6242222;23;20409;-69
2022/10/21 12:54:27;;;;;;;4.50;4.10;;;16.00;99.90;;;;;;6240701;22;20897;-69
2022/10/21 12:57:02;;;;;;;9.23;3.70;;;16.00;99.90;;;;;;6241038;23;20747;-70
2022/10/21 12:59:33;;;;;;;4.13;3.93;;;16.10;99.90;;;;;;6241972;23;20427;-69
2022/10/21 13:02:22;;;;;;;3.23;3.03;;;16.10;99.90;;;;;;6241884;23;20444;-69
2022/10/21 13:04:55;;;;;;;3.53;3.33;;;16.20;99.90;;;;;;6241726;22;20441;-69
2022/10/21 13:08:08;;;;;;;3.97;3.50;;;16.20;99.90;;;;;;6240052;23;20449;-69
2022/10/21 13:10:35;;;;;;;3.57;3.23;;;16.20;99.90;;;;;;6240409;23;20491;-69
2022/10/21 13:13:33;;;;;;;3.50;3.30;;;16.30;99.90;;;;;;6240931;23;20420;-70
2022/10/21 13:16:35;;;;;;;3.20;3.10;;;16.30;99.90;;;;;;6189904;23;20741;-69
2022/10/21 13:19:04;;;;;;;3.27;3.10;;;16.30;99.90;;;;;;6241859;23;20460;-70
2022/10/21 13:21:37;;;;;;;4.13;3.80;;;16.40;99.90;;;;;;6241260;23;20424;-70
2022/10/21 13:24:12;;;;;;;3.60;3.40;;;16.40;99.90;;;;;;6242182;23;20757;-68
2022/10/21 13:26:41;;;;;;;16.53;3.47;;;16.40;99.90;;;;;;6241775;23;20410;-70
2022/10/21 13:29:26;;;;;;;3.63;3.40;;;16.30;99.90;;;;;;6241954;23;21016;-69
2022/10/21 13:32:20;;;;;;;3.57;3.27;;;16.30;99.90;;;;;;6242113;23;20730;-69
2022/10/21 13:35:10;;;;;;;3.23;3.03;;;16.40;99.90;;;;;;6240555;22;20494;-68
2022/10/21 13:37:39;;;;;;;3.43;3.13;;;16.40;99.90;;;;;;6221146;23;20454;-70
2022/10/21 13:40:13;;;;;;;4.00;3.60;;;16.40;99.90;;;;;;6241374;23;20421;-69
2022/10/21 13:42:42;;;;;;;6.97;3.33;;;16.30;99.90;;;;;;6241729;23;20770;-70
2022/10/21 13:45:22;;;;;;;4.30;4.00;;;16.30;99.90;;;;;;6241687;22;20447;-69
2022/10/21 13:48:01;;;;;;;3.57;3.30;;;16.30;99.90;;;;;;6241542;23;20801;-70
2022/10/21 13:50:32;;;;;;;4.03;3.70;;;16.30;99.90;;;;;;6241705;23;20405;-69
2022/10/21 13:53:01;;;;;;;8.07;4.20;;;16.20;99.90;;;;;;6241039;23;20409;-68
2022/10/21 13:55:27;;;;;;;2.97;2.87;;;16.20;99.90;;;;;;6240978;22;20440;-69
2022/10/21 13:57:55;;;;;;;4.13;3.77;;;16.20;99.90;;;;;;6241548;23;20424;-70
2022/10/21 14:00:24;;;;;;;3.77;3.40;;;16.20;99.90;;;;;;6240726;23;20430;-69
2022/10/21 14:02:53;;;;;;;3.10;3.00;;;16.20;99.90;;;;;;6240638;23;20934;-70
2022/10/21 14:05:35;;;;;;;6.17;2.73;;;16.20;99.90;;;;;;6242147;22;20469;-70
2022/10/21 14:08:03;;;;;;;3.63;3.47;;;16.30;99.90;;;;;;6240798;23;20412;-70
2022/10/21 14:10:30;;;;;;;3.60;3.30;;;16.30;99.90;;;;;;6240905;23;20421;-69
2022/10/21 14:12:59;;;;;;;3.93;3.60;;;16.30;99.90;;;;;;6243001;23;20443;-69
2022/10/21 14:15:35;;;;;;;4.03;3.47;;;16.30;99.90;;;;;;6243793;22;20498;-69
2022/10/21 14:18:03;;;;;;;3.30;3.10;;;16.30;99.90;;;;;;6245680;23;20413;-70
2022/10/21 14:20:34;;;;;;;4.03;3.67;;;16.30;99.90;;;;;;6245987;23;20431;-70
2022/10/21 14:23:03;;;;;;;3.73;3.43;;;16.30;99.90;;;;;;6244890;23;20431;-70
2022/10/21 14:25:31;;;;;;;3.60;3.30;;;16.30;99.90;;;;;;6245090;22;20918;-70
2022/10/21 14:27:58;;;;;;;3.33;3.13;;;16.30;99.90;;;;;;6245350;23;20436;-70
2022/10/21 14:30:28;;;;;;;3.37;3.10;;;16.30;99.90;;;;;;6244215;23;20430;-70
2022/10/21 14:32:56;;;;;;;4.00;3.27;;;16.30;99.90;;;;;;6243095;23;20422;-70
2022/10/21 14:35:27;;;;;;;3.63;3.33;;;16.20;99.90;;;;;;6243522;22;20535;-70
2022/10/21 14:37:57;;;;;;;3.60;3.33;;;16.30;99.90;;;;;;6242559;23;20465;-70
2022/10/21 14:40:30;;;;;;;3.47;3.27;;;16.30;99.90;;;;;;6242576;23;20409;-70
2022/10/21 14:42:58;;;;;;;2.67;2.67;;;16.30;99.90;;;;;;6242467;23;20404;-70
2022/10/21 14:45:28;;;;;;;4.83;3.90;;;16.30;99.90;;;;;;6242692;22;20578;-69
2022/10/21 14:48:01;;;;;;;3.50;3.40;;;16.20;99.90;;;;;;6243215;23;20448;-71
2022/10/21 14:50:28;;;;;;;4.83;4.53;;;16.20;99.90;;;;;;6242926;23;20405;-69
2022/10/21 14:52:57;;;;;;;3.43;3.30;;;16.20;99.90;;;;;;6242057;23;20432;-70
2022/10/21 14:55:28;;;;;;;4.03;3.70;;;16.20;99.90;;;;;;6241946;22;20465;-68
2022/10/21 14:58:02;;;;;;;3.97;3.53;;;16.20;99.90;;;;;;6241785;23;20500;-70
2022/10/21 15:00:32;;;;;;;3.57;3.30;;;16.20;99.90;;;;;;6242582;23;20527;-70
2022/10/21 15:03:00;;;;;;;5.00;3.07;;;16.10;99.90;;;;;;6242933;23;20430;-70
2022/10/21 15:05:31;;;;;;;3.60;3.40;;;16.10;99.90;;;;;;6242306;22;20441;-70
2022/10/21 15:08:30;;;;;;;4.60;3.03;;;16.10;99.90;;;;;;6242323;23;20426;-70
2022/10/21 15:11:17;;;;;;;3.50;3.30;;;16.10;99.90;;;;;;6240965;23;20456;-70
2022/10/21 15:14:00;;;;;;;3.70;3.50;;;16.00;99.90;;;;;;6241957;23;20845;-70
2022/10/21 15:16:29;;;;;;;2.60;2.40;;;16.00;99.90;;;;;;6242604;22;20449;-70
2022/10/21 15:18:56;;;;;;;4.60;4.30;;;16.00;99.90;;;;;;6242341;23;20502;-69
2022/10/21 15:21:33;;;;;;;3.47;3.27;;;15.90;99.90;;;;;;6242825;23;20421;-70
2022/10/21 15:24:02;;;;;;;6.63;3.80;;;15.90;99.90;;;;;;6240892;23;20969;-69
2022/10/21 15:26:32;;;;;;;3.73;3.33;;;15.90;99.90;;;;;;6242376;22;20447;-71
2022/10/21 15:28:59;;;;;;;3.83;3.37;;;15.80;99.90;;;;;;6241913;23;20412;-68
2022/10/21 15:31:28;;;;;;;4.07;3.67;;;15.80;99.90;;;;;;6242682;23;20436;-69
2022/10/21 15:33:57;;;;;;;4.33;4.00;;;15.80;99.90;;;;;;6242372;23;20439;-69
2022/10/21 15:36:24;;;;;;;2.70;2.60;;;15.70;99.90;;;;;;6242604;22;20540;-68
2022/10/21 15:38:51;;;;;;;6.80;5.40;;;15.70;99.90;;;;;;6242168;23;20441;-68
2022/10/21 15:41:21;;;;;;;4.93;4.03;;;15.70;99.90;;;;;;6241763;23;20534;-68
2022/10/21 15:43:57;;;;;;;3.47;3.03;;;15.70;99.90;;;;;;6242181;23;20441;-69
2022/10/21 15:46:24;;;;;;;3.77;3.40;;;15.60;99.90;;;;;;6240951;22;20455;-68
2022/10/21 15:48:51;;;;;;;3.97;3.60;;;15.60;99.90;;;;;;6242120;23;20509;-69
2022/10/21 15:51:18;;;;;;;3.30;3.10;;;15.70;99.90;;;;;;6242075;23;20857;-68
2022/10/21 15:53:44;;;;;;;3.87;3.57;;;15.60;99.90;;;;;;6242528;23;20495;-69
2022/10/21 15:56:12;;;;;;;4.57;3.80;;;15.60;99.90;;;;;;6243488;22;20444;-69
2022/10/21 15:58:40;;;;;;;4.73;4.27;;;15.60;99.90;;;;;;6243463;23;20429;-69
2022/10/21 16:01:11;;;;;;;5.27;4.00;;;15.60;99.90;;;;;;6242778;22;20851;-68
2022/10/21 16:03:38;;;;;;;3.80;3.60;;;15.60;99.90;;;;;;6241217;23;20889;-70
2022/10/21 16:06:05;;;;;;;4.00;3.60;;;15.60;99.90;;;;;;6242316;23;20430;-68
2022/10/21 16:08:31;;;;;;;3.80;3.60;;;15.50;99.90;;;;;;6241897;23;20913;-68
2022/10/21 16:10:58;;;;;;;3.73;3.43;;;15.50;99.90;;;;;;6242180;22;20461;-69
2022/10/21 16:13:25;;;;;;;3.73;3.53;;;15.50;99.90;;;;;;6241535;23;20479;-70
2022/10/21 16:15:53;;;;;;;4.20;3.77;;;15.50;99.90;;;;;;6242090;23;20420;-70
2022/10/21 16:18:19;;;;;;;3.10;2.93;;;15.50;99.90;;;;;;6241437;23;20506;-67
2022/10/21 16:20:46;;;;;;;4.03;3.83;;;15.50;99.90;;;;;;6242043;22;20444;-68
2022/10/21 16:23:13;;;;;;;5.90;3.70;;;15.50;99.90;;;;;;6241562;23;20675;-68
2022/10/21 16:25:39;;;;;;;5.60;4.03;;;15.40;99.90;;;;;;6240818;23;20447;-68
2022/10/21 16:28:06;;;;;;;5.97;3.60;;;15.40;99.90;;;;;;6246335;23;20430;-68
2022/10/21 16:30:35;;;;;;;4.53;4.10;;;15.40;99.90;;;;;;6247281;22;20901;-69
2022/10/21 16:33:03;;;;;;;4.47;3.27;;;15.40;99.90;;;;;;6246294;23;20431;-68
2022/10/21 16:35:30;;;;;;;4.60;4.30;;;15.40;99.90;;;;;;6246837;23;20423;-68
2022/10/21 16:37:56;;;;;;;3.40;3.20;;;15.30;99.90;;;;;;6245167;23;20543;-68
2022/10/21 16:40:26;;;;;;;3.80;3.50;;;15.30;99.90;;;;;;6245818;22;20420;-69
2022/10/21 16:42:53;;;;;;;5.57;4.50;;;15.40;99.90;;;;;;6242801;23;20428;-69
2022/10/21 16:45:21;;;;;;;4.00;3.60;;;15.40;99.90;;;;;;6240791;23;20459;-69
2022/10/21 16:47:51;;;;;;;5.20;4.83;;;15.40;99.90;;;;;;6241633;23;20429;-69
2022/10/21 16:50:24;;;;;;;4.27;3.97;;;15.40;99.90;;;;;;6241732;23;20478;-68
2022/10/21 16:52:51;;;;;;;4.20;3.70;;;15.40;99.90;;;;;;6239987;23;20411;-68
2022/10/21 16:55:18;;;;;;;5.63;4.50;;;15.30;99.90;;;;;;6241158;23;20502;-68
2022/10/21 16:57:45;;;;;;;4.80;4.57;;;15.30;99.90;;;;;;6241750;23;20502;-69
2022/10/21 17:00:13;;;;;;;3.60;3.30;;;15.30;99.90;;;;;;6238971;23;21032;-69
2022/10/21 17:02:40;;;;;;;4.17;3.93;;;15.30;99.90;;;;;;6240708;22;20456;-67
2022/10/21 17:05:08;;;;;;;3.10;2.80;;;15.30;99.90;;;;;;6241308;23;20446;-68
2022/10/21 17:07:36;;;;;;;5.07;4.67;;;15.20;99.90;;;;;;6240855;23;20519;-68